Time;durP1;ratioP1;P1;durP2;ratioP2;P2;SDS_P1;SDS_P2;PMS_P1;PMS_P2;Temp;Humidity;BMP_temperature;BMP_pressure;BME280_temperature;BME280_humidity;BME280_pressure;Samples;Min_cycle;Max_cycle;Signal;HPM_P1;HPM_P2
2021/01/03 00:02:08;;;;;;;9.90;6.00;;;;;;;;;;5071595;28;20468;-56
2021/01/03 00:04:35;;;;;;;11.65;6.20;;;;;;;;;;5071335;28;20484;-56
2021/01/03 00:07:02;;;;;;;12.85;6.05;;;;;;;;;;5071505;28;20380;-56
2021/01/03 00:09:28;;;;;;;10.80;5.60;;;;;;;;;;5072096;28;20032;-58
2021/01/03 00:11:54;;;;;;;10.82;5.78;;;;;;;;;;5074619;28;20031;-57
2021/01/03 00:14:21;;;;;;;10.45;5.80;;;;;;;;;;5074990;28;20021;-58
2021/01/03 00:16:52;;;;;;;11.70;5.93;;;;;;;;;;5074670;28;20055;-55
2021/01/03 00:19:20;;;;;;;10.55;5.70;;;;;;;;;;5074948;28;20028;-55
2021/01/03 00:21:47;;;;;;;10.35;5.15;;;;;;;;;;5074983;28;20021;-55
2021/01/03 00:24:13;;;;;;;10.23;5.10;;;;;;;;;;5058274;28;20052;-56
2021/01/03 00:26:39;;;;;;;11.88;5.20;;;;;;;;;;5074281;28;20032;-59
2021/01/03 00:29:05;;;;;;;10.20;5.63;;;;;;;;;;5074404;28;20108;-55
2021/01/03 00:31:31;;;;;;;16.42;8.20;;;;;;;;;;5075117;28;20068;-56
2021/01/03 00:33:57;;;;;;;12.98;6.28;;;;;;;;;;5074731;28;20025;-55
2021/01/03 00:36:23;;;;;;;13.52;6.70;;;;;;;;;;5075016;28;20036;-58
2021/01/03 00:38:49;;;;;;;12.77;6.82;;;;;;;;;;5074687;28;20021;-57
2021/01/03 00:41:15;;;;;;;13.40;6.00;;;;;;;;;;5074303;28;20060;-55
2021/01/03 00:43:41;;;;;;;11.80;5.65;;;;;;;;;;5074288;28;20085;-55
2021/01/03 00:46:07;;;;;;;11.75;6.65;;;;;;;;;;5074451;28;20483;-56
2021/01/03 00:48:33;;;;;;;14.80;6.30;;;;;;;;;;5073739;28;20017;-55
2021/01/03 00:50:59;;;;;;;12.07;6.18;;;;;;;;;;5077416;28;20437;-54
2021/01/03 00:53:25;;;;;;;11.95;6.03;;;;;;;;;;5074012;28;20491;-57
2021/01/03 00:55:51;;;;;;;10.60;6.28;;;;;;;;;;5074359;28;20428;-56
2021/01/03 00:58:17;;;;;;;12.38;5.72;;;;;;;;;;5074496;28;20029;-56
2021/01/03 01:00:43;;;;;;;11.25;5.93;;;;;;;;;;5074470;28;20369;-55
2021/01/03 01:03:09;;;;;;;10.45;5.75;;;;;;;;;;5074181;28;20099;-54
2021/01/03 01:05:35;;;;;;;10.48;5.43;;;;;;;;;;5074523;28;20082;-56
2021/01/03 01:08:01;;;;;;;11.13;5.93;;;;;;;;;;5074328;28;20073;-55
2021/01/03 01:10:29;;;;;;;11.80;5.93;;;;;;;;;;5073709;28;20024;-56
2021/01/03 01:12:57;;;;;;;10.60;5.15;;;;;;;;;;5073938;28;20476;-55
2021/01/03 01:15:24;;;;;;;12.15;5.60;;;;;;;;;;5072618;28;20024;-55
2021/01/03 01:17:51;;;;;;;13.23;5.47;;;;;;;;;;5073622;28;20094;-53
2021/01/03 01:20:18;;;;;;;11.10;5.18;;;;;;;;;;5077494;28;20121;-54
2021/01/03 01:22:44;;;;;;;12.00;5.05;;;;;;;;;;5073586;28;20117;-55
2021/01/03 01:25:11;;;;;;;10.40;5.40;;;;;;;;;;5072896;28;20040;-54
2021/01/03 01:27:37;;;;;;;10.25;5.25;;;;;;;;;;5073746;28;20434;-54
2021/01/03 01:30:04;;;;;;;9.35;4.80;;;;;;;;;;5073318;28;20028;-54
2021/01/03 01:32:30;;;;;;;10.13;5.18;;;;;;;;;;5071082;28;20040;-54
2021/01/03 01:34:56;;;;;;;11.27;5.75;;;;;;;;;;5073437;28;20025;-54
2021/01/03 01:37:22;;;;;;;12.50;6.00;;;;;;;;;;5073781;28;20020;-56
2021/01/03 01:39:49;;;;;;;12.27;5.47;;;;;;;;;;5072560;28;20040;-55
2021/01/03 01:42:16;;;;;;;9.05;5.07;;;;;;;;;;5072994;28;20089;-56
2021/01/03 01:44:42;;;;;;;10.65;5.38;;;;;;;;;;5073197;28;20028;-55
2021/01/03 01:47:34;;;;;;;9.20;5.50;;;;;;;;;;5054730;28;20025;-54
2021/01/03 01:50:03;;;;;;;9.52;5.03;;;;;;;;;;5051165;28;20085;-55
2021/01/03 01:52:31;;;;;;;12.80;5.68;;;;;;;;;;5054005;28;20040;-55
2021/01/03 01:54:59;;;;;;;7.90;4.60;;;;;;;;;;5052176;28;20151;-54
2021/01/03 01:57:29;;;;;;;10.80;5.10;;;;;;;;;;5062517;28;20722;-55
2021/01/03 02:00:01;;;;;;;8.82;4.85;;;;;;;;;;5068267;28;20021;-55
2021/01/03 02:02:30;;;;;;;11.68;5.72;;;;;;;;;;5058388;28;20024;-54
2021/01/03 02:05:00;;;;;;;9.77;5.10;;;;;;;;;;5055257;28;20071;-54
2021/01/03 02:07:33;;;;;;;10.45;5.13;;;;;;;;;;5054958;28;20032;-54
2021/01/03 02:09:59;;;;;;;11.38;5.60;;;;;;;;;;5059384;28;20372;-54
2021/01/03 02:12:27;;;;;;;11.77;5.30;;;;;;;;;;5073154;28;20037;-55
2021/01/03 02:14:53;;;;;;;15.73;7.32;;;;;;;;;;5072993;28;20589;-56
2021/01/03 02:17:19;;;;;;;13.65;7.32;;;;;;;;;;5062516;28;20028;-55
2021/01/03 02:19:45;;;;;;;9.98;5.35;;;;;;;;;;5069510;28;20025;-56
2021/01/03 02:22:16;;;;;;;12.25;6.10;;;;;;;;;;5072911;28;20021;-56
2021/01/03 02:24:57;;;;;;;12.50;6.10;;;;;;;;;;5055143;28;20515;-56
2021/01/03 02:27:37;;;;;;;10.53;5.93;;;;;;;;;;5072956;28;20033;-56
2021/01/03 02:30:05;;;;;;;9.52;4.90;;;;;;;;;;5072481;28;20483;-55
2021/01/03 02:32:31;;;;;;;9.20;5.07;;;;;;;;;;5072608;28;20408;-56
2021/01/03 02:34:57;;;;;;;9.63;5.13;;;;;;;;;;5072647;28;20427;-55
2021/01/03 02:37:26;;;;;;;12.20;5.43;;;;;;;;;;5072599;28;20488;-55
2021/01/03 02:39:56;;;;;;;7.65;4.43;;;;;;;;;;5072554;28;20079;-56
2021/01/03 02:42:28;;;;;;;9.60;4.68;;;;;;;;;;5072797;28;20049;-56
2021/01/03 02:44:54;;;;;;;11.88;4.55;;;;;;;;;;5072735;28;20095;-55
2021/01/03 02:47:22;;;;;;;10.55;4.78;;;;;;;;;;5072703;28;20029;-55
2021/01/03 02:49:49;;;;;;;9.88;4.65;;;;;;;;;;5068602;28;20087;-54
2021/01/03 02:52:19;;;;;;;9.27;4.60;;;;;;;;;;5055052;28;20033;-54
2021/01/03 02:54:45;;;;;;;12.18;5.07;;;;;;;;;;5051866;28;20025;-54
2021/01/03 02:57:11;;;;;;;9.25;4.97;;;;;;;;;;5055304;28;20116;-54
2021/01/03 02:59:37;;;;;;;10.32;5.07;;;;;;;;;;5054526;28;20092;-54
2021/01/03 03:02:03;;;;;;;11.73;5.85;;;;;;;;;;5055371;28;20044;-56
2021/01/03 03:04:29;;;;;;;9.48;5.10;;;;;;;;;;5062243;28;20016;-55
2021/01/03 03:06:55;;;;;;;12.73;5.13;;;;;;;;;;5069868;28;20016;-56
2021/01/03 03:09:21;;;;;;;10.10;5.53;;;;;;;;;;5060294;28;20020;-56
2021/01/03 03:11:48;;;;;;;13.05;5.40;;;;;;;;;;5072101;28;20033;-56
2021/01/03 03:14:14;;;;;;;11.13;5.05;;;;;;;;;;5072153;28;20074;-55
2021/01/03 03:16:40;;;;;;;9.23;5.22;;;;;;;;;;5071992;28;20021;-54
2021/01/03 03:19:06;;;;;;;10.75;4.70;;;;;;;;;;5071887;28;20027;-57
2021/01/03 03:21:32;;;;;;;10.38;5.30;;;;;;;;;;5072007;28;20025;-56
2021/01/03 03:23:58;;;;;;;9.57;4.75;;;;;;;;;;5069405;28;20480;-56
2021/01/03 03:26:24;;;;;;;12.60;5.60;;;;;;;;;;5060073;28;20028;-56
2021/01/03 03:28:50;;;;;;;15.00;5.03;;;;;;;;;;5070847;28;20063;-55
2021/01/03 03:31:16;;;;;;;10.65;5.07;;;;;;;;;;5066509;28;20398;-56
2021/01/03 03:33:42;;;;;;;10.40;5.60;;;;;;;;;;5061617;28;20028;-56
2021/01/03 03:36:09;;;;;;;11.20;5.50;;;;;;;;;;5057805;28;20020;-56
2021/01/03 03:38:35;;;;;;;9.65;5.28;;;;;;;;;;5071779;28;20100;-57
2021/01/03 03:41:01;;;;;;;11.52;5.15;;;;;;;;;;5071527;28;20123;-56
2021/01/03 03:43:27;;;;;;;10.75;5.00;;;;;;;;;;5069774;28;20021;-56
2021/01/03 03:45:53;;;;;;;11.10;4.85;;;;;;;;;;5074915;28;20021;-56
2021/01/03 03:48:19;;;;;;;9.93;4.82;;;;;;;;;;5075526;28;20032;-56
2021/01/03 03:50:45;;;;;;;9.70;4.88;;;;;;;;;;5075356;28;20473;-57
2021/01/03 03:53:11;;;;;;;11.70;4.93;;;;;;;;;;5075382;28;20119;-56
2021/01/03 03:55:37;;;;;;;8.65;5.10;;;;;;;;;;5075313;28;20074;-57
2021/01/03 03:58:03;;;;;;;9.35;5.20;;;;;;;;;;5075492;28;20141;-56
2021/01/03 04:00:29;;;;;;;13.73;6.03;;;;;;;;;;5074780;28;20086;-56
2021/01/03 04:02:55;;;;;;;9.88;5.47;;;;;;;;;;5075340;28;20380;-56
2021/01/03 04:05:23;;;;;;;11.50;5.82;;;;;;;;;;5075329;28;20075;-56
2021/01/03 04:07:49;;;;;;;10.82;5.95;;;;;;;;;;5077514;28;20023;-56
2021/01/03 04:10:15;;;;;;;11.95;6.35;;;;;;;;;;5083254;28;20033;-56
2021/01/03 04:12:41;;;;;;;11.80;6.32;;;;;;;;;;5075147;28;20044;-56
2021/01/03 04:15:09;;;;;;;11.63;6.47;;;;;;;;;;5075165;28;20438;-56
2021/01/03 04:17:35;;;;;;;15.18;7.20;;;;;;;;;;5074841;28;20107;-57
2021/01/03 04:20:01;;;;;;;15.13;7.00;;;;;;;;;;5075247;28;20066;-56
2021/01/03 04:22:30;;;;;;;14.95;6.72;;;;;;;;;;5075127;28;20033;-55
2021/01/03 04:25:00;;;;;;;13.13;7.35;;;;;;;;;;5074656;28;20053;-55
2021/01/03 04:27:26;;;;;;;13.70;7.32;;;;;;;;;;5074988;28;20032;-56
2021/01/03 04:29:52;;;;;;;13.02;7.43;;;;;;;;;;5074878;28;20033;-56
2021/01/03 04:32:19;;;;;;;12.18;7.72;;;;;;;;;;5074884;28;20064;-57
2021/01/03 04:34:45;;;;;;;13.73;7.38;;;;;;;;;;5074558;28;20096;-56
2021/01/03 04:37:11;;;;;;;15.07;8.00;;;;;;;;;;5074979;28;20025;-56
2021/01/03 04:39:38;;;;;;;13.45;8.10;;;;;;;;;;5074768;28;20028;-56
2021/01/03 04:42:04;;;;;;;15.18;8.27;;;;;;;;;;5074919;28;20070;-56
2021/01/03 04:44:41;;;;;;;17.20;8.70;;;;;;;;;;5074807;28;20063;-56
2021/01/03 04:47:11;;;;;;;15.05;8.70;;;;;;;;;;5074811;28;20023;-56
2021/01/03 04:49:48;;;;;;;13.57;8.02;;;;;;;;;;5074796;28;20097;-55
2021/01/03 04:52:26;;;;;;;13.68;7.90;;;;;;;;;;5074392;28;20081;-56
2021/01/03 04:55:08;;;;;;;13.93;8.13;;;;;;;;;;5074532;28;20060;-56
2021/01/03 04:57:39;;;;;;;12.57;7.88;;;;;;;;;;5073871;28;20068;-56
2021/01/03 05:00:06;;;;;;;17.88;8.68;;;;;;;;;;5074262;28;20529;-56
2021/01/03 05:02:46;;;;;;;18.35;9.23;;;;;;;;;;5074507;28;20021;-56
2021/01/03 05:05:21;;;;;;;16.25;8.48;;;;;;;;;;5074622;28;20095;-56
2021/01/03 05:08:07;;;;;;;14.70;9.40;;;;;;;;;;5061298;28;20025;-55
2021/01/03 05:10:33;;;;;;;19.75;11.05;;;;;;;;;;4992721;28;20043;-56
2021/01/03 05:13:13;;;;;;;18.40;10.95;;;;;;;;;;4992834;28;20446;-55
2021/01/03 05:15:39;;;;;;;16.60;10.13;;;;;;;;;;4992672;28;20069;-56
2021/01/03 05:18:06;;;;;;;15.65;9.95;;;;;;;;;;4992741;28;20030;-56
2021/01/03 05:20:32;;;;;;;23.80;10.90;;;;;;;;;;4992671;28;20481;-56
2021/01/03 05:23:18;;;;;;;20.48;11.32;;;;;;;;;;4978983;28;20113;-55
2021/01/03 05:25:45;;;;;;;19.20;11.10;;;;;;;;;;4992418;28;20058;-56
2021/01/03 05:28:13;;;;;;;19.85;11.63;;;;;;;;;;4992727;28;20054;-55
2021/01/03 05:30:39;;;;;;;20.23;11.20;;;;;;;;;;5002934;28;20034;-56
2021/01/03 05:33:10;;;;;;;18.80;11.70;;;;;;;;;;4993053;28;20101;-57
2021/01/03 05:35:38;;;;;;;20.60;11.27;;;;;;;;;;4992500;28;20510;-56
2021/01/03 05:38:05;;;;;;;18.60;11.45;;;;;;;;;;4992302;28;20434;-56
2021/01/03 05:40:33;;;;;;;23.50;11.15;;;;;;;;;;4992332;28;20493;-56
2021/01/03 05:43:07;;;;;;;23.08;11.20;;;;;;;;;;4992352;28;20030;-56
2021/01/03 05:45:33;;;;;;;19.35;11.20;;;;;;;;;;4991968;28;20077;-57
2021/01/03 05:48:04;;;;;;;18.65;10.68;;;;;;;;;;5033788;28;20102;-56
2021/01/03 05:50:35;;;;;;;19.77;10.95;;;;;;;;;;5073578;28;20020;-56
2021/01/03 05:53:14;;;;;;;19.52;10.80;;;;;;;;;;5073329;28;20037;-56
2021/01/03 05:55:50;;;;;;;18.60;11.02;;;;;;;;;;5073410;28;20469;-56
2021/01/03 05:58:31;;;;;;;19.90;11.63;;;;;;;;;;5073438;28;20036;-56
2021/01/03 06:01:16;;;;;;;19.92;11.18;;;;;;;;;;5073133;28;20031;-56
2021/01/03 06:03:42;;;;;;;19.08;10.63;;;;;;;;;;5073224;28;20032;-57
2021/01/03 06:06:16;;;;;;;19.98;10.85;;;;;;;;;;5073253;28;20012;-56
2021/01/03 06:08:43;;;;;;;18.13;10.82;;;;;;;;;;5072633;28;20430;-56
2021/01/03 06:11:13;;;;;;;19.23;10.98;;;;;;;;;;5073242;28;20028;-55
2021/01/03 06:13:47;;;;;;;18.33;10.75;;;;;;;;;;5073341;28;20024;-56
2021/01/03 06:16:13;;;;;;;19.42;11.05;;;;;;;;;;5067121;28;20032;-55
2021/01/03 06:18:41;;;;;;;20.40;10.90;;;;;;;;;;5079625;28;20032;-57
2021/01/03 06:21:22;;;;;;;17.05;10.30;;;;;;;;;;5072933;28;20095;-56
2021/01/03 06:24:08;;;;;;;22.00;11.43;;;;;;;;;;5072669;28;20063;-56
2021/01/03 06:26:36;;;;;;;19.95;11.02;;;;;;;;;;5072708;28;20032;-56
2021/01/03 06:29:06;;;;;;;20.00;10.70;;;;;;;;;;5073024;28;20049;-56
2021/01/03 06:31:32;;;;;;;22.40;11.98;;;;;;;;;;5072724;28;20031;-55
2021/01/03 06:33:58;;;;;;;19.65;11.52;;;;;;;;;;5072690;28;20450;-56
2021/01/03 06:36:32;;;;;;;17.80;11.23;;;;;;;;;;5072626;28;20408;-55
2021/01/03 06:38:58;;;;;;;19.30;10.18;;;;;;;;;;5071957;28;20077;-55
2021/01/03 06:41:29;;;;;;;20.27;11.52;;;;;;;;;;5072345;28;20092;-54
2021/01/03 06:44:14;;;;;;;19.38;11.23;;;;;;;;;;5063774;28;20037;-55
2021/01/03 06:47:03;;;;;;;19.33;10.77;;;;;;;;;;5057911;28;20024;-57
2021/01/03 06:49:47;;;;;;;22.67;11.98;;;;;;;;;;5053247;28;20071;-55
2021/01/03 06:52:36;;;;;;;20.90;11.18;;;;;;;;;;5056410;28;20043;-54
2021/01/03 06:55:21;;;;;;;19.33;12.27;;;;;;;;;;5041285;28;20083;-55
2021/01/03 06:57:47;;;;;;;21.10;12.23;;;;;;;;;;5072211;28;20383;-55
2021/01/03 07:00:15;;;;;;;24.00;13.48;;;;;;;;;;5072147;28;20025;-56
2021/01/03 07:02:43;;;;;;;20.17;11.32;;;;;;;;;;5058454;28;20017;-56
2021/01/03 07:05:09;;;;;;;17.65;10.85;;;;;;;;;;5054864;28;20033;-57
2021/01/03 07:07:37;;;;;;;19.58;10.65;;;;;;;;;;5057799;28;20030;-54
2021/01/03 07:10:12;;;;;;;16.05;9.73;;;;;;;;;;5067849;28;20013;-57
2021/01/03 07:12:41;;;;;;;15.25;9.60;;;;;;;;;;5063767;28;20084;-58
2021/01/03 07:15:10;;;;;;;18.35;11.00;;;;;;;;;;5071385;28;20025;-58
2021/01/03 07:17:47;;;;;;;19.00;11.13;;;;;;;;;;5072361;28;20082;-59
2021/01/03 07:20:21;;;;;;;18.27;10.88;;;;;;;;;;5056998;28;20016;-58
2021/01/03 07:22:47;;;;;;;20.80;10.95;;;;;;;;;;5072229;28;20033;-58
2021/01/03 07:25:16;;;;;;;16.33;10.63;;;;;;;;;;5071558;28;20048;-59
2021/01/03 07:27:53;;;;;;;19.95;10.93;;;;;;;;;;5072025;28;20094;-58
2021/01/03 07:30:30;;;;;;;19.00;11.45;;;;;;;;;;5071465;28;20021;-59
2021/01/03 07:33:05;;;;;;;21.42;12.15;;;;;;;;;;5070668;28;20048;-58
2021/01/03 07:35:34;;;;;;;20.65;11.35;;;;;;;;;;5067654;28;20017;-59
2021/01/03 07:38:26;;;;;;;19.20;11.48;;;;;;;;;;5061560;28;20025;-58
2021/01/03 07:40:54;;;;;;;;;;;;;;;;;;5054095;28;20086;-57
2021/01/03 07:43:21;;;;;;;19.00;10.18;;;;;;;;;;5071827;28;19909;-56
2021/01/03 07:45:47;;;;;;;19.48;11.57;;;;;;;;;;5071372;28;20039;-54
2021/01/03 07:48:31;;;;;;;17.00;10.63;;;;;;;;;;5072269;28;20021;-58
2021/01/03 07:50:57;;;;;;;19.30;11.80;;;;;;;;;;5071561;28;20032;-54
2021/01/03 07:53:23;;;;;;;18.55;10.35;;;;;;;;;;5071701;28;20028;-54
2021/01/03 07:55:50;;;;;;;15.13;9.48;;;;;;;;;;5071666;28;20032;-58
2021/01/03 07:58:19;;;;;;;16.73;9.63;;;;;;;;;;5071905;28;20091;-56
2021/01/03 08:00:46;;;;;;;18.25;10.40;;;;;;;;;;5071349;28;20128;-58
2021/01/03 08:03:13;;;;;;;23.67;12.35;;;;;;;;;;5068298;28;20029;-59
2021/01/03 08:05:40;;;;;;;18.33;10.77;;;;;;;;;;5055538;28;20020;-57
2021/01/03 08:08:06;;;;;;;19.23;10.90;;;;;;;;;;5062239;28;20033;-57
2021/01/03 08:10:33;;;;;;;19.50;11.43;;;;;;;;;;5066568;28;20024;-57
2021/01/03 08:13:19;;;;;;;18.70;11.02;;;;;;;;;;5071475;28;20154;-57
2021/01/03 08:15:45;;;;;;;19.70;10.07;;;;;;;;;;5071705;28;20392;-57
2021/01/03 08:18:14;;;;;;;15.52;9.25;;;;;;;;;;5071486;28;20051;-57
2021/01/03 08:20:40;;;;;;;13.77;8.30;;;;;;;;;;5071400;28;20063;-57
2021/01/03 08:23:10;;;;;;;18.92;9.95;;;;;;;;;;5065202;28;20040;-57
2021/01/03 08:25:36;;;;;;;15.35;9.48;;;;;;;;;;5082844;28;20048;-57
2021/01/03 08:28:19;;;;;;;14.00;8.63;;;;;;;;;;5071731;28;20468;-57
2021/01/03 08:30:45;;;;;;;;;;;;;;;;;;5059513;28;20033;-57
2021/01/03 08:33:18;;;;;;;14.50;7.45;;;;;;;;;;5075665;28;19908;-57
2021/01/03 08:35:44;;;;;;;13.60;7.95;;;;;;;;;;5074862;28;20380;-57
2021/01/03 08:38:10;;;;;;;14.73;8.25;;;;;;;;;;5064042;28;20033;-57
2021/01/03 08:40:42;;;;;;;12.85;8.10;;;;;;;;;;5071845;28;20052;-57
2021/01/03 08:43:09;;;;;;;12.67;7.27;;;;;;;;;;5074888;28;20020;-57
2021/01/03 08:45:37;;;;;;;11.88;7.53;;;;;;;;;;5074877;28;20241;-57
2021/01/03 08:48:04;;;;;;;12.77;7.57;;;;;;;;;;5074858;28;20020;-57
2021/01/03 08:50:33;;;;;;;13.98;8.15;;;;;;;;;;5074548;28;20028;-57
2021/01/03 08:53:02;;;;;;;14.35;8.40;;;;;;;;;;5074358;28;20554;-57
2021/01/03 08:55:30;;;;;;;17.27;9.02;;;;;;;;;;5074817;28;20388;-57
2021/01/03 08:57:57;;;;;;;12.95;7.60;;;;;;;;;;5074376;28;20031;-57
2021/01/03 09:00:24;;;;;;;11.57;7.82;;;;;;;;;;5074498;28;20024;-57
2021/01/03 09:02:53;;;;;;;16.33;10.32;;;;;;;;;;5074153;28;20364;-57
2021/01/03 09:05:19;;;;;;;20.60;11.52;;;;;;;;;;5074344;28;20507;-59
2021/01/03 09:07:46;;;;;;;17.85;8.63;;;;;;;;;;5074354;28;20373;-56
2021/01/03 09:10:21;;;;;;;16.58;9.48;;;;;;;;;;5071585;28;20024;-59
2021/01/03 09:12:48;;;;;;;15.23;9.50;;;;;;;;;;5072548;28;20070;-56
2021/01/03 09:15:21;;;;;;;17.05;9.15;;;;;;;;;;5073739;28;20021;-59
2021/01/03 09:18:00;;;;;;;13.38;7.40;;;;;;;;;;5073991;28;20035;-61
2021/01/03 09:20:34;;;;;;;20.08;11.50;;;;;;;;;;5062000;28;20029;-56
2021/01/03 09:23:09;;;;;;;25.73;15.77;;;;;;;;;;5072981;28;20512;-61
2021/01/03 09:25:36;;;;;;;34.75;22.15;;;;;;;;;;5065960;28;20135;-54
2021/01/03 09:28:21;;;;;;;32.28;22.02;;;;;;;;;;5073839;28;20465;-55
2021/01/03 09:30:47;;;;;;;30.75;18.50;;;;;;;;;;5063829;28;20048;-56
2021/01/03 09:33:15;;;;;;;22.27;14.80;;;;;;;;;;5073905;28;20036;-58
2021/01/03 09:36:00;;;;;;;20.77;11.48;;;;;;;;;;5073658;28;20392;-60
2021/01/03 09:38:35;;;;;;;15.98;10.55;;;;;;;;;;5073317;28;20098;-55
2021/01/03 09:41:10;;;;;;;17.23;9.02;;;;;;;;;;5073768;28;20024;-60
2021/01/03 09:43:50;;;;;;;21.52;13.85;;;;;;;;;;5073054;28;20033;-55
2021/01/03 09:46:16;;;;;;;19.67;13.48;;;;;;;;;;5073660;28;20052;-56
2021/01/03 09:48:42;;;;;;;19.33;11.30;;;;;;;;;;5073421;28;20484;-60
2021/01/03 09:51:27;;;;;;;14.73;8.75;;;;;;;;;;5073302;28;20032;-60
2021/01/03 09:54:08;;;;;;;16.67;10.20;;;;;;;;;;5073036;28;20028;-57
2021/01/03 09:56:36;;;;;;;15.68;8.55;;;;;;;;;;5073396;28;20028;-57
2021/01/03 09:59:14;;;;;;;14.80;8.68;;;;;;;;;;5073309;28;20388;-57
2021/01/03 10:01:40;;;;;;;15.68;9.70;;;;;;;;;;5073264;28;20464;-59
2021/01/03 10:04:15;;;;;;;13.15;7.75;;;;;;;;;;5072844;28;20032;-59
2021/01/03 10:06:41;;;;;;;10.85;6.88;;;;;;;;;;5074874;28;20379;-58
2021/01/03 10:09:31;;;;;;;10.63;7.85;;;;;;;;;;5074662;28;20376;-58
2021/01/03 10:11:57;;;;;;;11.00;8.38;;;;;;;;;;5073021;28;20035;-58
2021/01/03 10:14:31;;;;;;;13.23;8.90;;;;;;;;;;5072390;28;20058;-57
2021/01/03 10:17:11;;;;;;;12.98;8.57;;;;;;;;;;5072434;28;20031;-57
2021/01/03 10:19:37;;;;;;;17.85;14.10;;;;;;;;;;5068117;28;20078;-58
2021/01/03 10:22:03;;;;;;;19.20;15.88;;;;;;;;;;5078541;28;20036;-58
2021/01/03 10:24:29;;;;;;;15.10;12.48;;;;;;;;;;5071565;28;20028;-59
2021/01/03 10:27:04;;;;;;;10.02;8.30;;;;;;;;;;5072643;28;20483;-58
2021/01/03 10:29:31;;;;;;;13.05;10.82;;;;;;;;;;5072208;28;20028;-61
2021/01/03 10:31:57;;;;;;;14.32;10.15;;;;;;;;;;5069548;28;20025;-54
2021/01/03 10:34:24;;;;;;;13.45;11.63;;;;;;;;;;5054964;28;20433;-59
2021/01/03 10:36:52;;;;;;;13.27;11.77;;;;;;;;;;5055310;28;20025;-56
2021/01/03 10:39:18;;;;;;;11.70;9.82;;;;;;;;;;5054276;28;20536;-57
2021/01/03 10:41:46;;;;;;;9.10;6.47;;;;;;;;;;5041123;28;20404;-57
2021/01/03 10:44:13;;;;;;;10.60;7.22;;;;;;;;;;5053703;28;20469;-59
2021/01/03 10:46:39;;;;;;;14.02;10.52;;;;;;;;;;5052268;28;20033;-56
2021/01/03 10:49:06;;;;;;;19.20;14.05;;;;;;;;;;5057221;28;20085;-57
2021/01/03 10:51:34;;;;;;;25.77;17.80;;;;;;;;;;5064695;28;20569;-57
2021/01/03 10:54:00;;;;;;;20.52;14.95;;;;;;;;;;5055113;28;20057;-56
2021/01/03 10:56:26;;;;;;;22.38;16.70;;;;;;;;;;5053370;28;20036;-57
2021/01/03 10:58:53;;;;;;;17.45;13.27;;;;;;;;;;5052194;28;20029;-59
2021/01/03 11:01:19;;;;;;;21.23;16.23;;;;;;;;;;5053447;28;20047;-59
2021/01/03 11:03:45;;;;;;;25.42;18.80;;;;;;;;;;5051933;28;20058;-57
2021/01/03 11:06:11;;;;;;;19.52;14.60;;;;;;;;;;5055793;28;20044;-56
2021/01/03 11:08:38;;;;;;;16.00;12.07;;;;;;;;;;5050773;28;20078;-57
2021/01/03 11:11:04;;;;;;;14.57;11.00;;;;;;;;;;5055130;28;20385;-56
2021/01/03 11:13:30;;;;;;;14.30;11.52;;;;;;;;;;5070344;28;20063;-58
2021/01/03 11:15:56;;;;;;;16.10;13.25;;;;;;;;;;5064288;28;20021;-57
2021/01/03 11:18:22;;;;;;;15.30;11.43;;;;;;;;;;5065701;28;20060;-57
2021/01/03 11:20:48;;;;;;;13.40;9.55;;;;;;;;;;5063872;28;20396;-58
2021/01/03 11:23:14;;;;;;;12.43;9.30;;;;;;;;;;5054737;28;20064;-57
2021/01/03 11:25:40;;;;;;;15.07;12.68;;;;;;;;;;5051607;28;20045;-58
2021/01/03 11:28:07;;;;;;;11.77;8.50;;;;;;;;;;5058458;28;20036;-59
2021/01/03 11:30:33;;;;;;;11.38;7.70;;;;;;;;;;5058827;28;20056;-57
2021/01/03 11:32:59;;;;;;;10.95;9.18;;;;;;;;;;5066848;28;20048;-57
2021/01/03 11:35:25;;;;;;;14.35;11.15;;;;;;;;;;5072186;28;20040;-60
2021/01/03 11:37:51;;;;;;;22.13;18.65;;;;;;;;;;5075072;28;20135;-58
2021/01/03 11:40:18;;;;;;;14.63;10.90;;;;;;;;;;5071810;28;20400;-57
2021/01/03 11:42:44;;;;;;;24.85;14.20;;;;;;;;;;5071175;28;20033;-57
2021/01/03 11:45:12;;;;;;;13.00;8.23;;;;;;;;;;5059524;28;20033;-56
2021/01/03 11:47:38;;;;;;;24.85;14.05;;;;;;;;;;5070936;28;20024;-56
2021/01/03 11:50:04;;;;;;;12.93;8.48;;;;;;;;;;5071354;28;20027;-59
2021/01/03 11:52:31;;;;;;;17.77;10.63;;;;;;;;;;5055676;28;20768;-59
2021/01/03 11:54:58;;;;;;;24.90;19.10;;;;;;;;;;5051366;28;20025;-60
2021/01/03 11:57:24;;;;;;;11.38;8.20;;;;;;;;;;5056259;28;20024;-58
2021/01/03 11:59:50;;;;;;;22.60;18.35;;;;;;;;;;5055312;28;20040;-58
2021/01/03 12:02:16;;;;;;;11.40;7.00;;;;;;;;;;5043113;28;20083;-56
2021/01/03 12:04:42;;;;;;;12.25;7.85;;;;;;;;;;5056685;28;20075;-58
2021/01/03 12:07:10;;;;;;;10.70;8.45;;;;;;;;;;5067667;28;20024;-57
2021/01/03 12:09:36;;;;;;;9.55;6.22;;;;;;;;;;5068024;28;20021;-58
2021/01/03 12:12:07;;;;;;;8.88;5.55;;;;;;;;;;5058258;28;20042;-57
2021/01/03 12:14:34;;;;;;;6.72;4.13;;;;;;;;;;5067722;28;20486;-57
2021/01/03 12:17:01;;;;;;;13.05;9.70;;;;;;;;;;5061251;28;20029;-56
2021/01/03 12:19:28;;;;;;;7.78;5.47;;;;;;;;;;5070847;28;20025;-57
2021/01/03 12:22:01;;;;;;;10.82;6.78;;;;;;;;;;5075053;28;20021;-59
2021/01/03 12:24:28;;;;;;;7.63;5.22;;;;;;;;;;5071867;28;20078;-59
2021/01/03 12:26:54;;;;;;;81.55;68.13;;;;;;;;;;5062710;28;20400;-61
2021/01/03 12:29:21;;;;;;;46.90;37.97;;;;;;;;;;5058687;28;20099;-58
2021/01/03 12:31:49;;;;;;;9.60;7.03;;;;;;;;;;5057738;28;20107;-59
2021/01/03 12:34:16;;;;;;;8.07;5.30;;;;;;;;;;5068771;28;20021;-58
2021/01/03 12:36:43;;;;;;;8.45;5.10;;;;;;;;;;5061530;28;20027;-60
2021/01/03 12:39:10;;;;;;;7.22;5.55;;;;;;;;;;5074234;28;20036;-60
2021/01/03 12:41:36;;;;;;;9.20;7.35;;;;;;;;;;5074407;28;20048;-60
2021/01/03 12:44:03;;;;;;;22.80;15.40;;;;;;;;;;5074256;28;20024;-56
2021/01/03 12:46:31;;;;;;;15.63;9.82;;;;;;;;;;5068719;28;20035;-57
2021/01/03 12:48:57;;;;;;;20.63;13.13;;;;;;;;;;5073919;28;20102;-58
2021/01/03 12:51:23;;;;;;;12.60;9.10;;;;;;;;;;5060500;28;20038;-58
2021/01/03 12:53:49;;;;;;;27.95;13.15;;;;;;;;;;5055737;28;20051;-57
2021/01/03 12:56:15;;;;;;;20.73;15.25;;;;;;;;;;5061967;28;20465;-59
2021/01/03 12:58:41;;;;;;;14.30;10.43;;;;;;;;;;5069374;28;20029;-58
2021/01/03 13:01:07;;;;;;;21.63;15.98;;;;;;;;;;5071311;28;20020;-57
2021/01/03 13:03:34;;;;;;;21.63;15.02;;;;;;;;;;5060293;28;20020;-58
2021/01/03 13:06:01;;;;;;;16.27;11.63;;;;;;;;;;5071335;28;20013;-58
2021/01/03 13:08:27;;;;;;;24.02;17.15;;;;;;;;;;5059539;28;20115;-59
2021/01/03 13:10:53;;;;;;;12.63;9.10;;;;;;;;;;5055818;28;20032;-60
2021/01/03 13:13:19;;;;;;;12.30;8.98;;;;;;;;;;5071032;28;20039;-60
2021/01/03 13:15:45;;;;;;;11.80;8.55;;;;;;;;;;5074189;28;20050;-60
2021/01/03 13:18:11;;;;;;;16.70;12.10;;;;;;;;;;5072926;28;20025;-58
2021/01/03 13:20:37;;;;;;;20.85;13.20;;;;;;;;;;5074125;28;20020;-57
2021/01/03 13:23:03;;;;;;;16.38;11.68;;;;;;;;;;5074062;28;20035;-59
2021/01/03 13:25:29;;;;;;;12.73;9.00;;;;;;;;;;5073410;28;20049;-58
2021/01/03 13:27:55;;;;;;;15.68;9.95;;;;;;;;;;5073613;28;20025;-59
2021/01/03 13:30:21;;;;;;;13.23;9.10;;;;;;;;;;5073916;28;20427;-58
2021/01/03 13:32:48;;;;;;;10.50;7.35;;;;;;;;;;5073674;28;20062;-58
2021/01/03 13:35:15;;;;;;;14.50;11.00;;;;;;;;;;5073615;28;20029;-57
2021/01/03 13:37:41;;;;;;;20.45;15.00;;;;;;;;;;5073707;28;20062;-58
2021/01/03 13:40:08;;;;;;;22.15;16.52;;;;;;;;;;5073647;28;20024;-56
2021/01/03 13:42:34;;;;;;;16.15;12.52;;;;;;;;;;5073562;28;20078;-58
2021/01/03 13:45:00;;;;;;;14.75;11.35;;;;;;;;;;5073642;28;20017;-61
2021/01/03 13:47:26;;;;;;;11.93;8.80;;;;;;;;;;5070313;28;20032;-64
2021/01/03 13:49:52;;;;;;;20.08;14.35;;;;;;;;;;5073246;28;20021;-59
2021/01/03 13:52:18;;;;;;;16.45;11.80;;;;;;;;;;5038385;28;20037;-64
2021/01/03 13:54:44;;;;;;;18.27;12.82;;;;;;;;;;5062819;28;20119;-60
2021/01/03 13:57:10;;;;;;;15.57;11.05;;;;;;;;;;5072823;28;20037;-65
2021/01/03 13:59:40;;;;;;;23.23;17.70;;;;;;;;;;5072709;28;20051;-62
2021/01/03 14:02:07;;;;;;;26.38;18.35;;;;;;;;;;5063249;28;20470;-61
2021/01/03 14:04:33;;;;;;;17.20;12.77;;;;;;;;;;5061229;28;20025;-57
2021/01/03 14:06:59;;;;;;;16.63;13.38;;;;;;;;;;5053195;28;20025;-56
2021/01/03 14:09:25;;;;;;;16.52;11.32;;;;;;;;;;5067980;28;20025;-57
2021/01/03 14:11:57;;;;;;;21.45;15.63;;;;;;;;;;5069038;28;20040;-56
2021/01/03 14:14:23;;;;;;;22.45;14.65;;;;;;;;;;5071967;28;20027;-57
2021/01/03 14:16:53;;;;;;;32.80;17.98;;;;;;;;;;5072855;28;20035;-57
2021/01/03 14:19:19;;;;;;;33.05;19.40;;;;;;;;;;5072257;28;20551;-56
2021/01/03 14:21:45;;;;;;;22.48;11.90;;;;;;;;;;5069468;28;20049;-59
2021/01/03 14:24:12;;;;;;;16.98;11.05;;;;;;;;;;5057649;28;20044;-59
2021/01/03 14:26:41;;;;;;;17.60;11.32;;;;;;;;;;5068214;28;20112;-54
2021/01/03 14:29:08;;;;;;;26.58;16.13;;;;;;;;;;5071754;28;20070;-55
2021/01/03 14:31:35;;;;;;;31.05;22.80;;;;;;;;;;5065895;28;20033;-56
2021/01/03 14:34:02;;;;;;;37.80;25.23;;;;;;;;;;5066677;28;20476;-56
2021/01/03 14:36:30;;;;;;;11.63;7.88;;;;;;;;;;5067774;28;20029;-56